Accueil
METAR-TAF:

METAR-TAF

Aéroports :

Vientiane, Laos

Aéroport international de Wattay

latitude: 17-57N, longitude: 102-34E, altitude: 171 m

Observation

Le bulletin a été fait il y a 42 minutes, à 23:30 UTC
Vent 6 kt de est/sud-est
Température 21°C
Humidité 83%
Pression 1014 hPa
Visibilité 10 km ou plus
Nuages épars à une hauteur de 5000 ft
Nuages épars à une hauteur de 20000 ft

METAR: VLVT 222330Z 12006KT 9999 SCT050 SCT200 21/18 Q1014 NOSIG

Heure: 07:12 (00:12 UTC)

Prévision

Le bulletin a été fait il y a 1 heure et 12 minutes, à 23:00 UTC
Prévision valable du 23 à 00 UTC au 23 à 24 UTC
Vent 6 kt de ouest/nord-ouest
Visibilité 10 km ou plus
Nuages épars à une hauteur de 2000 ft
Nuages épars à une hauteur de 5000 ft
Temporairement
du 23 à 15 UTC au 23 à 21 UTC
Visibilité: 4000 m
Nuages épars à une hauteur de 5000 ft
brume

TAF: VLVT 222300Z 2300/2324 30006KT 9999 SCT020 SCT050 TEMPO 2315/2321 4000 BR SCT050

Observations et prévisions météorologiques de plus de 4000 aéroports (messages METAR et TAF).

Les stations disponibles sont représentées par des disques jaunes et rouges sur la carte.

Passer la souris dessus pour voir le nom de la station.

Cliquer dessus pour voir les observations et prévisions météorologiques.

Pour changer de carte: cliquez sur les boutons verts avec une croix noire pour zoomer, sur le bouton vert avec un tiret pour effectuer un zoom arrière, ou sur les flèches vertes pour les cartes adjacentes.


METAR-TAF: